createdAt,value
2018-09-24T00:00:00.024Z,9.50
2018-09-24T00:02:28.068Z,9.50
2018-09-24T00:04:56.195Z,9.50
2018-09-24T00:07:24.324Z,9.50
2018-09-24T00:09:53.876Z,9.40
2018-09-24T00:12:22.042Z,9.40
2018-09-24T00:14:50.184Z,9.50
2018-09-24T00:17:18.319Z,9.50
2018-09-24T00:19:46.448Z,9.50
2018-09-24T00:22:14.572Z,9.50
2018-09-24T00:24:42.702Z,9.50
2018-09-24T00:27:10.912Z,9.40
2018-09-24T00:29:39.034Z,9.40
2018-09-24T00:32:07.194Z,9.40
2018-09-24T00:34:35.300Z,9.40
2018-09-24T00:37:03.486Z,9.40
2018-09-24T00:39:31.600Z,9.40
2018-09-24T00:41:59.784Z,9.40
2018-09-24T00:44:27.890Z,9.40
2018-09-24T00:46:55.978Z,9.40
2018-09-24T00:49:24.108Z,9.40
2018-09-24T00:51:52.272Z,9.40
2018-09-24T00:54:20.416Z,9.30
2018-09-24T00:56:48.596Z,9.30
2018-09-24T00:59:16.731Z,9.20
2018-09-24T01:01:44.858Z,9.20
2018-09-24T01:04:12.998Z,9.10
2018-09-24T01:06:41.130Z,9.10
2018-09-24T01:09:10.793Z,9.10
2018-09-24T01:11:38.964Z,9.10
2018-09-24T01:14:07.109Z,9.00
2018-09-24T01:16:35.412Z,9.00
2018-09-24T01:19:03.587Z,9.00
2018-09-24T01:21:31.801Z,9.00
2018-09-24T01:24:00.002Z,9.00
2018-09-24T01:26:28.151Z,9.00
2018-09-24T01:28:56.296Z,9.00
2018-09-24T01:31:24.466Z,9.00
2018-09-24T01:33:52.595Z,9.00
2018-09-24T01:36:20.740Z,9.00
2018-09-24T01:38:48.882Z,9.00
2018-09-24T01:41:17.013Z,9.00
2018-09-24T01:43:45.162Z,9.00
2018-09-24T01:46:13.290Z,8.90
2018-09-24T01:48:41.437Z,9.00
2018-09-24T01:51:09.552Z,8.90
2018-09-24T01:53:37.835Z,8.90
2018-09-24T01:56:06.832Z,8.80
2018-09-24T01:58:37.003Z,8.80
2018-09-24T02:01:05.219Z,8.80
2018-09-24T02:03:34.436Z,8.80
2018-09-24T02:06:03.159Z,8.70
2018-09-24T02:08:31.376Z,8.80
2018-09-24T02:10:59.518Z,8.80
2018-09-24T02:13:27.680Z,8.80
2018-09-24T02:15:55.877Z,8.80
2018-09-24T02:18:24.051Z,8.80
2018-09-24T02:20:52.280Z,8.80
2018-09-24T02:23:20.448Z,8.70
2018-09-24T02:25:48.660Z,8.80
2018-09-24T02:28:16.820Z,8.70
2018-09-24T02:30:44.981Z,8.70
2018-09-24T02:33:13.613Z,8.70
2018-09-24T02:35:46.511Z,8.70
2018-09-24T02:38:16.208Z,8.60
2018-09-24T02:40:44.485Z,8.60
2018-09-24T02:43:12.696Z,8.60
2018-09-24T02:45:40.800Z,8.60
2018-09-24T02:48:08.961Z,8.60
2018-09-24T02:50:39.222Z,8.70
2018-09-24T02:53:08.762Z,8.60
2018-09-24T02:55:36.942Z,8.60
2018-09-24T02:58:05.076Z,8.60
2018-09-24T03:00:33.298Z,8.60
2018-09-24T03:03:07.731Z,8.60
2018-09-24T03:05:35.942Z,8.50
2018-09-24T03:08:07.825Z,8.50
2018-09-24T03:10:36.263Z,8.50
2018-09-24T03:13:05.520Z,8.50
2018-09-24T03:15:39.062Z,8.50
2018-09-24T03:18:07.975Z,8.50
2018-09-24T03:20:43.634Z,8.40
2018-09-24T03:23:11.817Z,8.40
2018-09-24T03:25:41.184Z,8.40
2018-09-24T03:28:09.490Z,8.40
2018-09-24T03:30:41.321Z,8.50
2018-09-24T03:33:09.547Z,8.40
2018-09-24T03:35:37.720Z,8.40
2018-09-24T03:38:05.890Z,8.40
2018-09-24T03:40:34.030Z,8.40
2018-09-24T03:43:03.788Z,8.40
2018-09-24T03:45:31.972Z,8.30
2018-09-24T03:48:00.154Z,8.30
2018-09-24T03:50:28.504Z,8.30
2018-09-24T03:52:57.124Z,8.30
2018-09-24T03:55:25.278Z,8.30
2018-09-24T03:57:53.451Z,8.30
2018-09-24T04:00:21.744Z,8.30
2018-09-24T04:02:49.958Z,8.30
2018-09-24T04:05:23.526Z,8.30
2018-09-24T04:07:57.236Z,8.30
2018-09-24T04:10:30.896Z,8.20
2018-09-24T04:13:04.427Z,8.20
2018-09-24T04:15:38.038Z,8.20
2018-09-24T04:18:12.562Z,8.20
2018-09-24T04:20:46.332Z,8.10
2018-09-24T04:23:20.114Z,8.10
2018-09-24T04:25:53.691Z,8.20
2018-09-24T04:28:27.407Z,8.10
2018-09-24T04:31:01.176Z,8.10
2018-09-24T04:33:34.806Z,8.10
2018-09-24T04:36:08.512Z,8.10
2018-09-24T04:38:42.058Z,8.10
2018-09-24T04:41:15.534Z,8.10
2018-09-24T04:43:49.812Z,8.10
2018-09-24T04:46:23.411Z,8.00
2018-09-24T04:48:57.087Z,8.10
2018-09-24T04:51:30.732Z,8.10
2018-09-24T04:54:04.212Z,8.00
2018-09-24T04:56:37.939Z,8.00
2018-09-24T04:59:11.724Z,8.00
2018-09-24T05:01:45.312Z,8.10
2018-09-24T05:04:20.385Z,8.00
2018-09-24T05:06:55.448Z,8.10
2018-09-24T05:09:29.227Z,8.00
2018-09-24T05:12:02.926Z,8.00
2018-09-24T05:14:36.631Z,8.10
2018-09-24T05:17:10.196Z,8.10
2018-09-24T05:19:43.732Z,8.20
2018-09-24T05:22:17.356Z,8.20
2018-09-24T05:24:51.010Z,8.20
2018-09-24T05:27:25.434Z,8.20
2018-09-24T05:29:59.055Z,8.30
2018-09-24T05:32:32.713Z,8.30
2018-09-24T05:35:06.350Z,8.30
2018-09-24T05:37:39.982Z,8.40
2018-09-24T05:40:13.621Z,8.40
2018-09-24T05:42:47.242Z,8.50
2018-09-24T05:45:20.886Z,8.50
2018-09-24T05:47:54.526Z,8.50
2018-09-24T05:50:29.310Z,8.50
2018-09-24T05:53:03.002Z,8.60
2018-09-24T05:55:36.377Z,8.60
2018-09-24T05:58:11.448Z,8.60
2018-09-24T06:00:45.028Z,8.70
2018-09-24T06:03:18.628Z,8.70
2018-09-24T06:05:52.966Z,8.70
2018-09-24T06:08:26.649Z,8.70
2018-09-24T06:11:00.286Z,8.80
2018-09-24T06:13:33.906Z,9.00
2018-09-24T06:16:07.450Z,9.10
2018-09-24T06:18:40.932Z,9.20
2018-09-24T06:21:15.532Z,9.40
2018-09-24T06:23:49.138Z,9.60
2018-09-24T06:26:22.726Z,9.70
2018-09-24T06:28:56.423Z,9.90
2018-09-24T06:31:29.989Z,10.00
2018-09-24T06:34:03.536Z,9.90
2018-09-24T06:36:37.186Z,10.00
2018-09-24T06:39:12.936Z,10.00
2018-09-24T06:41:46.632Z,10.10
2018-09-24T06:44:20.324Z,10.20
2018-09-24T06:46:54.142Z,10.30
2018-09-24T06:49:27.985Z,10.50
2018-09-24T06:52:01.692Z,10.60
2018-09-24T06:54:35.322Z,10.50
2018-09-24T06:57:08.884Z,10.70
2018-09-24T06:59:42.683Z,10.80
2018-09-24T07:02:16.345Z,10.80
2018-09-24T07:04:49.986Z,10.90
2018-09-24T07:07:23.614Z,10.90
2018-09-24T07:09:57.356Z,10.60
2018-09-24T07:12:31.158Z,10.70
2018-09-24T07:15:04.864Z,10.90
2018-09-24T07:17:38.566Z,10.90
2018-09-24T07:20:12.158Z,10.80
2018-09-24T07:22:46.007Z,10.90
2018-09-24T07:25:19.620Z,11.00
2018-09-24T07:27:53.231Z,10.90
2018-09-24T07:30:26.967Z,11.00
2018-09-24T07:33:00.764Z,11.20
2018-09-24T07:35:34.341Z,11.30
2018-09-24T07:38:07.913Z,11.40
2018-09-24T07:40:41.690Z,11.40
2018-09-24T07:43:15.490Z,11.30
2018-09-24T07:45:48.934Z,11.30
2018-09-24T07:48:22.576Z,11.40
2018-09-24T07:50:56.174Z,11.60
2018-09-24T07:53:29.779Z,11.60
2018-09-24T07:56:03.485Z,11.50
2018-09-24T07:58:37.213Z,11.70
2018-09-24T08:01:11.907Z,11.70
2018-09-24T08:03:45.465Z,11.70
2018-09-24T08:06:19.014Z,11.90
2018-09-24T08:08:52.549Z,11.90
2018-09-24T08:11:26.112Z,11.80
2018-09-24T08:13:59.663Z,11.70
2018-09-24T08:16:34.420Z,11.80
2018-09-24T08:19:08.140Z,11.80
2018-09-24T08:21:43.162Z,12.00
2018-09-24T08:24:16.839Z,12.30
2018-09-24T08:26:50.512Z,12.30
2018-09-24T08:29:24.172Z,12.30
2018-09-24T08:31:57.881Z,12.50
2018-09-24T08:34:31.556Z,12.50
2018-09-24T08:37:05.303Z,12.30
2018-09-24T08:39:39.192Z,12.20
2018-09-24T08:42:13.486Z,12.30
2018-09-24T08:44:47.138Z,12.50
2018-09-24T08:47:20.784Z,12.70
2018-09-24T08:49:54.584Z,12.70
2018-09-24T08:52:28.286Z,12.70
2018-09-24T08:55:01.956Z,12.90
2018-09-24T08:57:35.593Z,12.90
2018-09-24T09:00:09.312Z,12.90
2018-09-24T09:02:42.917Z,13.00
2018-09-24T09:05:16.554Z,13.00
2018-09-24T09:07:50.328Z,13.20
2018-09-24T09:10:23.892Z,13.30
2018-09-24T09:12:58.081Z,13.30
2018-09-24T09:15:31.974Z,13.30
2018-09-24T09:18:05.420Z,13.40
2018-09-24T09:20:39.145Z,13.30
2018-09-24T09:23:12.571Z,13.30
2018-09-24T09:25:46.358Z,13.40
2018-09-24T09:28:20.065Z,13.40
2018-09-24T09:30:53.600Z,13.50
2018-09-24T09:33:27.159Z,13.50
2018-09-24T09:36:00.845Z,13.40
2018-09-24T09:38:34.538Z,13.60
2018-09-24T09:41:08.203Z,13.70
2018-09-24T09:43:41.848Z,13.80
2018-09-24T09:46:15.455Z,13.90
2018-09-24T09:48:49.150Z,13.80
2018-09-24T09:51:22.860Z,13.60
2018-09-24T09:53:56.592Z,13.50
2018-09-24T09:56:31.152Z,13.50
2018-09-24T09:59:04.829Z,13.60
2018-09-24T10:01:38.658Z,13.70
2018-09-24T10:04:12.387Z,13.80
2018-09-24T10:06:45.956Z,13.80
2018-09-24T10:09:19.620Z,13.80
2018-09-24T10:11:53.224Z,13.70
2018-09-24T10:14:27.640Z,13.70
2018-09-24T10:17:01.326Z,13.80
2018-09-24T10:19:35.120Z,14.00
2018-09-24T10:22:08.902Z,14.30
2018-09-24T10:24:42.682Z,14.60
2018-09-24T10:27:16.255Z,14.50
2018-09-24T10:29:49.870Z,14.20
2018-09-24T10:32:23.314Z,14.10
2018-09-24T10:34:56.830Z,14.00
2018-09-24T10:37:30.578Z,13.90
2018-09-24T10:40:04.253Z,14.00
2018-09-24T10:42:38.001Z,14.10
2018-09-24T10:45:11.524Z,14.10
2018-09-24T10:47:45.224Z,14.00
2018-09-24T10:50:18.638Z,14.00
2018-09-24T10:52:52.424Z,14.00
2018-09-24T10:55:26.022Z,14.10
2018-09-24T10:57:59.618Z,14.10
2018-09-24T11:00:33.434Z,14.10
2018-09-24T11:03:07.078Z,14.10
2018-09-24T11:05:40.554Z,14.30
2018-09-24T11:08:14.143Z,14.40
2018-09-24T11:10:47.688Z,14.30
2018-09-24T11:13:21.320Z,14.30
2018-09-24T11:15:55.026Z,14.20
2018-09-24T11:18:28.628Z,14.10
2018-09-24T11:21:02.157Z,14.00
2018-09-24T11:23:35.804Z,14.00
2018-09-24T11:26:09.407Z,14.20
2018-09-24T11:28:43.691Z,14.50
2018-09-24T11:31:17.299Z,14.80
2018-09-24T11:33:50.930Z,15.10
2018-09-24T11:36:24.695Z,15.30
2018-09-24T11:38:59.377Z,15.30
2018-09-24T11:41:32.807Z,15.00
2018-09-24T11:44:06.549Z,14.70
2018-09-24T11:46:40.039Z,14.40
2018-09-24T11:49:13.641Z,14.10
2018-09-24T11:51:47.191Z,13.90
2018-09-24T11:54:20.906Z,13.70
2018-09-24T11:56:54.689Z,13.60
2018-09-24T11:59:28.485Z,13.50
2018-09-24T12:02:02.178Z,13.40
2018-09-24T12:04:35.733Z,13.00
2018-09-24T12:07:09.379Z,12.70
2018-09-24T12:09:44.254Z,12.50
2018-09-24T12:12:17.909Z,12.40
2018-09-24T12:14:51.427Z,12.40
2018-09-24T12:17:25.131Z,12.50
2018-09-24T12:19:58.767Z,12.50
2018-09-24T12:22:32.375Z,12.50
2018-09-24T12:25:06.097Z,12.60
2018-09-24T12:27:39.850Z,12.50
2018-09-24T12:30:14.058Z,12.30
2018-09-24T12:32:47.706Z,11.90
2018-09-24T12:35:21.249Z,11.40
2018-09-24T12:37:54.917Z,10.70
2018-09-24T12:40:28.504Z,10.20
2018-09-24T12:43:03.372Z,9.60
2018-09-24T12:45:36.941Z,9.30
2018-09-24T12:48:10.574Z,9.30
2018-09-24T12:50:44.147Z,9.40
2018-09-24T12:53:24.691Z,9.60
2018-09-24T12:55:58.233Z,10.00
2018-09-24T12:58:32.007Z,10.40
2018-09-24T13:01:06.597Z,10.60
2018-09-24T13:03:40.189Z,10.60
2018-09-24T13:06:13.808Z,10.70
2018-09-24T13:08:47.411Z,10.80
2018-09-24T13:11:21.098Z,10.90
2018-09-24T13:13:54.716Z,11.00
2018-09-24T13:16:28.953Z,11.20
2018-09-24T13:19:02.445Z,11.40
2018-09-24T13:21:35.888Z,11.60
2018-09-24T13:24:09.556Z,11.80
2018-09-24T13:26:43.217Z,12.00
2018-09-24T13:29:16.801Z,12.10
2018-09-24T13:31:50.460Z,12.00
2018-09-24T13:34:24.127Z,11.90
2018-09-24T13:36:57.859Z,11.90
2018-09-24T13:39:31.377Z,11.90
2018-09-24T13:42:05.165Z,12.10
2018-09-24T13:44:38.740Z,12.10
2018-09-24T13:47:12.471Z,12.00
2018-09-24T13:49:46.110Z,11.90
2018-09-24T13:52:19.783Z,11.90
2018-09-24T13:54:53.331Z,12.00
2018-09-24T13:57:27.097Z,12.10
2018-09-24T14:00:00.901Z,12.10
2018-09-24T14:02:34.644Z,12.10
2018-09-24T14:05:08.320Z,12.10
2018-09-24T14:07:41.791Z,12.10
2018-09-24T14:10:15.575Z,12.20
2018-09-24T14:12:49.245Z,12.30
2018-09-24T14:15:22.939Z,12.40
2018-09-24T14:17:56.603Z,12.60
2018-09-24T14:20:30.222Z,12.80
2018-09-24T14:23:03.788Z,12.90
2018-09-24T14:25:37.550Z,12.90
2018-09-24T14:28:11.102Z,12.80
2018-09-24T14:30:44.720Z,12.90
2018-09-24T14:33:18.345Z,12.80
2018-09-24T14:35:52.079Z,12.90
2018-09-24T14:38:25.652Z,12.90
2018-09-24T14:40:59.383Z,12.80
2018-09-24T14:43:32.949Z,12.80
2018-09-24T14:46:06.690Z,12.80
2018-09-24T14:48:40.377Z,12.80
2018-09-24T14:51:14.128Z,13.00
2018-09-24T14:53:47.789Z,13.10
2018-09-24T14:56:21.600Z,13.20
2018-09-24T14:58:55.196Z,13.10
2018-09-24T15:01:29.022Z,12.90
2018-09-24T15:04:02.772Z,12.70
2018-09-24T15:06:36.568Z,12.40
2018-09-24T15:09:12.333Z,12.20
2018-09-24T15:11:46.323Z,12.00
2018-09-24T15:14:19.889Z,11.90
2018-09-24T15:16:53.452Z,11.90
2018-09-24T15:19:27.060Z,11.90
2018-09-24T15:22:00.599Z,11.90
2018-09-24T15:24:34.152Z,11.90
2018-09-24T15:27:07.792Z,12.00
2018-09-24T15:29:41.524Z,11.90
2018-09-24T15:32:15.195Z,11.80
2018-09-24T15:34:49.258Z,11.70
2018-09-24T15:37:22.909Z,11.70
2018-09-24T15:39:56.585Z,11.80
2018-09-24T15:42:31.240Z,11.90
2018-09-24T15:45:04.967Z,12.00
2018-09-24T15:47:38.674Z,12.10
2018-09-24T15:50:12.327Z,12.20
2018-09-24T15:52:46.003Z,12.10
2018-09-24T15:55:19.550Z,12.00
2018-09-24T15:57:53.203Z,11.90
2018-09-24T16:00:26.725Z,11.90
2018-09-24T16:03:00.344Z,11.90
2018-09-24T16:05:33.919Z,11.90
2018-09-24T16:08:07.686Z,11.90
2018-09-24T16:10:41.517Z,11.90
2018-09-24T16:13:15.051Z,11.80
2018-09-24T16:15:48.704Z,11.80
2018-09-24T16:18:22.344Z,11.80
2018-09-24T16:20:55.998Z,11.90
2018-09-24T16:23:29.749Z,11.90
2018-09-24T16:26:03.366Z,11.90
2018-09-24T16:28:37.762Z,12.00
2018-09-24T16:31:11.812Z,12.00
2018-09-24T16:33:46.326Z,12.00
2018-09-24T16:36:19.835Z,12.00
2018-09-24T16:38:53.677Z,11.90
2018-09-24T16:41:27.464Z,11.80
2018-09-24T16:44:00.977Z,11.70
2018-09-24T16:46:34.566Z,11.60
2018-09-24T16:49:08.299Z,11.50
2018-09-24T16:51:41.946Z,11.50
2018-09-24T16:54:15.783Z,11.40
2018-09-24T16:56:50.729Z,11.40
2018-09-24T16:59:24.380Z,11.30
2018-09-24T17:01:58.020Z,11.30
2018-09-24T17:04:31.706Z,11.20
2018-09-24T17:07:05.244Z,11.20
2018-09-24T17:09:38.840Z,11.20
2018-09-24T17:12:12.793Z,11.20
2018-09-24T17:14:46.316Z,11.30
2018-09-24T17:17:20.083Z,11.20
2018-09-24T17:19:53.639Z,11.30
2018-09-24T17:22:27.261Z,11.30
2018-09-24T17:25:00.857Z,11.30
2018-09-24T17:27:34.580Z,11.30
2018-09-24T17:30:08.276Z,11.30
2018-09-24T17:32:42.008Z,11.30
2018-09-24T17:35:15.625Z,11.30
2018-09-24T17:37:49.153Z,11.40
2018-09-24T17:40:23.079Z,11.40
2018-09-24T17:42:56.924Z,11.40
2018-09-24T17:45:30.748Z,11.40
2018-09-24T17:48:04.398Z,11.40
2018-09-24T17:50:38.078Z,11.40
2018-09-24T17:53:11.841Z,11.30
2018-09-24T17:55:45.544Z,11.20
2018-09-24T17:58:19.167Z,11.10
2018-09-24T18:00:52.958Z,11.00
2018-09-24T18:03:26.620Z,11.00
2018-09-24T18:06:00.398Z,10.90
2018-09-24T18:08:33.870Z,11.00
2018-09-24T18:11:07.906Z,11.00
2018-09-24T18:13:41.686Z,11.10
2018-09-24T18:16:15.483Z,11.10
2018-09-24T18:18:49.158Z,11.10
2018-09-24T18:21:22.902Z,11.00
2018-09-24T18:23:56.457Z,11.00
2018-09-24T18:26:30.162Z,10.90
2018-09-24T18:29:03.812Z,10.90
2018-09-24T18:31:37.633Z,10.90
2018-09-24T18:34:11.305Z,10.90
2018-09-24T18:36:45.121Z,10.90
2018-09-24T18:39:19.346Z,10.90
2018-09-24T18:41:52.931Z,10.90
2018-09-24T18:44:26.477Z,10.80
2018-09-24T18:47:00.879Z,10.70
2018-09-24T18:49:34.477Z,10.60
2018-09-24T18:52:08.183Z,10.50
2018-09-24T18:54:41.793Z,10.40
2018-09-24T18:57:15.557Z,10.40
2018-09-24T18:59:49.036Z,10.30
2018-09-24T19:02:22.652Z,10.30
2018-09-24T19:04:56.272Z,10.30
2018-09-24T19:07:30.080Z,10.30
2018-09-24T19:10:03.764Z,10.30
2018-09-24T19:12:37.584Z,10.20
2018-09-24T19:15:11.350Z,10.20
2018-09-24T19:17:44.983Z,10.20
2018-09-24T19:20:18.620Z,10.10
2018-09-24T19:22:52.600Z,10.10
2018-09-24T19:25:26.081Z,10.10
2018-09-24T19:27:59.658Z,10.10
2018-09-24T19:30:33.334Z,10.10
2018-09-24T19:33:07.038Z,10.00
2018-09-24T19:35:40.813Z,9.90
2018-09-24T19:38:14.379Z,9.80
2018-09-24T19:40:47.943Z,9.80
2018-09-24T19:43:21.748Z,9.80
2018-09-24T19:45:55.452Z,9.80
2018-09-24T19:48:29.375Z,9.70
2018-09-24T19:51:03.116Z,9.70
2018-09-24T19:53:36.860Z,9.70
2018-09-24T19:56:10.462Z,9.60
2018-09-24T19:58:44.205Z,9.50
2018-09-24T20:01:18.120Z,9.50
2018-09-24T20:03:51.752Z,9.40
2018-09-24T20:06:25.301Z,9.40
2018-09-24T20:08:58.971Z,9.40
2018-09-24T20:11:32.608Z,9.30
2018-09-24T20:14:06.167Z,9.30
2018-09-24T20:16:39.885Z,9.30
2018-09-24T20:19:13.618Z,9.30
2018-09-24T20:21:47.250Z,9.20
2018-09-24T20:24:21.050Z,9.20
2018-09-24T20:26:54.682Z,9.20
2018-09-24T20:29:28.266Z,9.20
2018-09-24T20:32:01.850Z,9.20
2018-09-24T20:34:35.464Z,9.10
2018-09-24T20:37:09.840Z,9.00
2018-09-24T20:39:43.562Z,9.00
2018-09-24T20:42:17.211Z,8.90
2018-09-24T20:44:50.773Z,8.90
2018-09-24T20:47:24.420Z,8.90
2018-09-24T20:49:58.038Z,8.90
2018-09-24T20:52:31.818Z,8.90
2018-09-24T20:55:05.460Z,8.90
2018-09-24T20:57:39.252Z,8.90
2018-09-24T21:00:12.908Z,8.80
2018-09-24T21:02:46.518Z,8.90
2018-09-24T21:05:20.254Z,8.90
2018-09-24T21:07:54.208Z,8.80
2018-09-24T21:10:28.009Z,8.80
2018-09-24T21:13:01.664Z,8.80
2018-09-24T21:15:35.328Z,8.80
2018-09-24T21:18:09.005Z,8.80
2018-09-24T21:20:42.697Z,8.80
2018-09-24T21:23:16.409Z,8.80
2018-09-24T21:25:50.046Z,8.90
2018-09-24T21:28:23.645Z,8.90
2018-09-24T21:30:57.219Z,8.90
2018-09-24T21:33:30.787Z,8.90
2018-09-24T21:36:04.242Z,9.00
2018-09-24T21:38:37.883Z,8.90
2018-09-24T21:41:11.874Z,8.90
2018-09-24T21:43:45.475Z,8.80
2018-09-24T21:46:19.002Z,8.70
2018-09-24T21:48:52.636Z,8.70
2018-09-24T21:51:26.175Z,8.60
2018-09-24T21:53:59.652Z,8.60
2018-09-24T21:56:33.437Z,8.50
2018-09-24T21:59:06.995Z,8.50
2018-09-24T22:01:40.671Z,8.50
2018-09-24T22:04:14.495Z,8.50
2018-09-24T22:06:48.122Z,8.40
2018-09-24T22:09:21.712Z,8.40
2018-09-24T22:11:55.352Z,8.40
2018-09-24T22:14:29.007Z,8.40
2018-09-24T22:17:02.737Z,8.40
2018-09-24T22:19:36.393Z,8.40
2018-09-24T22:22:10.052Z,8.30
2018-09-24T22:24:43.630Z,8.30
2018-09-24T22:27:17.260Z,8.30
2018-09-24T22:29:51.166Z,8.30
2018-09-24T22:32:24.667Z,8.30
2018-09-24T22:34:58.285Z,8.20
2018-09-24T22:37:32.001Z,8.20
2018-09-24T22:40:05.895Z,8.20
2018-09-24T22:42:39.381Z,8.20
2018-09-24T22:45:13.120Z,8.20
2018-09-24T22:47:46.707Z,8.20
2018-09-24T22:50:20.445Z,8.10
2018-09-24T22:52:54.216Z,8.10
2018-09-24T22:55:27.753Z,8.10
2018-09-24T22:58:01.321Z,8.10
2018-09-24T23:00:35.015Z,8.10
2018-09-24T23:03:08.456Z,8.10
2018-09-24T23:05:42.029Z,8.00
2018-09-24T23:08:15.968Z,8.00
2018-09-24T23:10:49.568Z,7.90
2018-09-24T23:13:23.231Z,7.90
2018-09-24T23:15:57.189Z,7.90
2018-09-24T23:18:30.713Z,7.80
2018-09-24T23:21:04.403Z,7.80
2018-09-24T23:23:38.078Z,7.80
2018-09-24T23:26:11.797Z,7.80
2018-09-24T23:28:46.366Z,7.80
2018-09-24T23:31:19.981Z,7.80
2018-09-24T23:33:54.088Z,7.70
2018-09-24T23:36:28.539Z,7.70
2018-09-24T23:39:02.351Z,7.70
2018-09-24T23:41:35.784Z,7.70
2018-09-24T23:44:09.544Z,7.70
2018-09-24T23:46:43.156Z,7.70
2018-09-24T23:49:16.812Z,7.70
2018-09-24T23:51:50.450Z,7.70
2018-09-24T23:54:24.089Z,7.60
2018-09-24T23:56:57.622Z,7.60
2018-09-24T23:59:31.357Z,7.50
